Latest Weather Observations for Charles Point

IDD60901

Issued at 4:45 pm CST Friday 28 November 2014 (issued every 10 minutes, with the page automatically refreshed every 10 minutes)

About weather observations | Map of Darwin area stations | Latest observations for Darwin area | Other Formats
Station Details ID: 014031 Name: CHARLES POINT Lat: -12.39 Lon: 130.63 Height: 14.0 m
Data from the previous 72 hours. | See also: Recent months for locations in Northern Territory
Date/Time
CST
Tmp

°C
App
Tmp
°C
Dew
Point
°C
Rel
Hum
%
Delta-T

°C
Wind Press
QNH
hPa
Press
MSL
hPa
Rain
since
9 am
mm
Dir
 
Spd
km/h
Gust
km/h
Spd
kts
Gust
kts
28/04:30pm 30.4 35.0 23.8 68 4.6 NNE 6 9 3 5 1006.2 1006.0 0.4
28/04:00pm 29.8 34.3 24.0 71 4.0 NNE 7 11 4 6 1006.6 1006.4 0.4
28/03:30pm 30.7 35.4 23.9 67 4.7 S 6 9 3 5 1006.7 1006.5 0.4
28/03:00pm 31.0 34.8 23.4 64 5.3 S 9 19 5 10 1007.0 1006.8 0.4
28/02:30pm 28.8 33.0 23.5 73 3.7 SSE 7 15 4 8 1007.3 1007.1 0.4
28/02:00pm 28.1 31.4 23.2 74 3.4 S 11 17 6 9 1007.9 1007.7 0.4
28/01:30pm 28.2 31.8 23.8 77 3.0 S 11 19 6 10 1008.2 1008.0 0.4
28/01:00pm 28.7 33.4 24.3 77 3.1 S 7 11 4 6 1008.8 1008.6 0.4
28/12:30pm 27.7 32.2 23.9 80 2.6 S 7 13 4 7 1009.4 1009.2 0.4
28/12:00pm 27.7 32.3 24.1 81 2.5 S 7 11 4 6 1009.9 1009.7 0.4
28/11:30am 27.5 31.2 23.9 81 2.5 S 11 17 6 9 1010.2 1010.0 0.4
28/11:00am 27.8 32.2 24.4 82 2.4 S 9 17 5 9 1010.9 1010.7 0.4
28/10:30am 27.3 31.9 24.2 83 2.1 SSE 7 13 4 7 1011.3 1011.1 0.2
28/10:00am 27.1 32.2 24.6 86 1.7 S 6 7 3 4 1011.2 1011.0 0.2
28/09:30am 25.8 31.4 24.2 91 1.1 SSW 2 4 1 2 1011.0 1010.8 0.2
28/09:00am 24.7 29.9 23.5 93 0.8 SW 2 6 1 3 1011.1 1010.9 6.4
28/08:30am 24.3 28.4 22.9 92 0.9 SSW 6 9 3 5 1010.9 1010.7 6.2
28/08:00am 24.1 28.0 22.9 93 0.8 S 7 11 4 6 1010.6 1010.4 5.8
28/07:30am 24.2 28.3 23.0 93 0.8 SSE 6 9 3 5 1010.0 1009.8 4.8
28/07:00am 24.3 29.6 23.1 93 0.8 CALM 0 6 0 3 1009.7 1009.5 4.4
28/06:30am 24.1 27.9 22.7 92 0.9 SSW 7 11 4 6 1010.0 1009.8 4.2
28/06:00am 24.3 27.7 22.7 91 1.1 S 9 13 5 7 1009.4 1009.2 4.2
28/05:30am 25.6 30.0 23.5 88 1.4 SSE 6 11 3 6 1008.9 1008.7 4.2
28/05:00am 26.9 31.3 23.8 83 2.1 N 7 13 4 7 1008.5 1008.3 4.0
28/04:30am 27.7 32.3 24.7 84 2.1 NE 9 15 5 8 1008.5 1008.3 3.6
28/04:00am 26.4 32.0 24.8 91 1.1 E 4 6 2 3 1008.1 1007.9 3.6
28/03:30am 26.1 31.6 24.7 92 1.0 SSE 4 6 2 3 1008.1 1007.9 3.6
28/03:00am 26.0 31.5 24.6 92 1.0 S 4 6 2 3 1008.0 1007.8 3.6
28/02:30am 26.6 31.9 23.7 84 2.0 NNE 2 - 1 - 1008.3 1008.1 3.6
28/02:00am 26.5 32.4 25.3 93 0.8 SSW 4 6 2 3 1008.2 1008.0 3.6
28/01:30am 26.4 31.8 25.2 93 0.8 SSW 6 7 3 4 1008.6 1008.4 3.4
28/01:00am 26.3 31.5 25.1 93 0.8 SSW 7 9 4 5 1008.9 1008.7 2.6
28/12:30am 26.5 31.9 25.1 92 1.0 SSW 6 7 3 4 1009.2 1009.0 2.4
28/12:00am 26.3 31.4 24.9 92 1.0 SSW 7 11 4 6 1009.6 1009.4 2.4
 
Date/Time
CST
Tmp

°C
App
Tmp
°C
Dew
Point
°C
Rel
Hum
%
Delta-T

°C
Wind Press
QNH
hPa
Press
MSL
hPa
Rain
since
9 am
mm
Dir
 
Spd
km/h
Gust
km/h
Spd
kts
Gust
kts
27/11:30pm 26.0 30.5 24.6 92 1.0 SW 9 15 5 8 1009.5 1009.3 2.4
27/11:00pm 26.4 31.5 25.0 92 1.0 SW 7 13 4 7 1009.6 1009.4 0.4
27/10:30pm 27.2 31.8 24.7 86 1.7 SW 9 17 5 9 1009.3 1009.1 0.0
27/10:00pm 30.0 32.3 24.4 72 3.9 NNW 20 30 11 16 1009.1 1008.9 0.0
27/09:30pm 30.0 32.1 25.3 76 3.3 NNW 24 30 13 16 1008.8 1008.6 0.0
27/09:00pm 30.3 33.3 24.7 72 3.9 NW 17 24 9 13 1008.5 1008.3 0.0
27/08:30pm 30.4 33.2 25.2 74 3.7 NW 20 26 11 14 1008.1 1007.9 0.0
27/08:00pm 30.6 32.9 25.7 75 3.5 NW 24 35 13 19 1007.7 1007.5 0.0
27/07:30pm 30.8 32.4 25.2 72 4.0 N 26 32 14 17 1007.5 1007.3 0.0
27/07:00pm 30.9 32.3 24.8 70 4.3 N 26 30 14 16 1006.9 1006.7 0.0
27/06:30pm 31.4 33.3 22.7 60 6.0 NNE 17 26 9 14 1007.1 1006.9 0.0
27/06:00pm 32.1 34.5 22.2 56 6.8 N 13 19 7 10 1006.8 1006.6 0.0
27/05:30pm 32.6 35.4 23.0 57 6.6 NNE 13 17 7 9 1006.5 1006.3 0.0
27/05:00pm 32.7 36.6 24.2 61 5.9 NNE 11 15 6 8 1006.2 1006.0 0.0
27/04:30pm 32.7 37.0 24.2 61 6.0 NE 9 13 5 7 1006.1 1005.9 0.0
27/04:00pm 32.5 36.5 23.7 59 6.1 NNE 9 13 5 7 1006.2 1006.0 0.0
27/03:30pm 32.6 36.7 23.3 58 6.4 NNE 7 11 4 6 1006.4 1006.2 0.0
27/03:00pm 32.6 36.0 23.3 58 6.4 NE 11 15 6 8 1006.7 1006.5 0.0
27/02:30pm 32.1 35.5 23.3 59 6.1 NNE 11 15 6 8 1006.9 1006.7 0.0
27/02:00pm 31.6 35.0 23.4 61 5.7 N 11 13 6 7 1007.3 1007.1 0.0
27/01:30pm 32.3 35.9 23.0 58 6.4 NNE 9 13 5 7 1007.8 1007.6 0.0
27/01:00pm 32.3 36.0 23.3 59 6.2 NNE 9 11 5 6 1008.3 1008.1 0.0
27/12:30pm 32.1 36.4 23.6 60 5.9 NNE 7 13 4 7 1008.6 1008.4 0.0
27/12:00pm 32.0 35.5 22.1 55 6.7 NNE 7 11 4 6 1009.1 1008.9 0.0
27/11:30am 32.1 35.3 21.6 53 7.1 ENE 7 13 4 7 1009.5 1009.3 0.0
27/11:00am 31.8 34.6 21.6 54 6.9 ENE 9 13 5 7 1009.8 1009.6 0.0
27/10:30am 31.5 35.1 23.1 61 5.8 E 9 13 5 7 1010.3 1010.1 0.0
27/10:00am 32.0 35.9 23.0 59 6.2 ENE 7 11 4 6 1010.3 1010.1 0.0
27/09:30am 31.2 34.8 23.0 61 5.6 E 9 15 5 8 1010.5 1010.3 0.0
27/09:00am 30.9 35.3 23.5 64 5.1 E 6 11 3 6 1010.2 1010.0 0.0
27/08:30am 30.2 34.6 23.4 67 4.7 E 6 13 3 7 1009.8 1009.6 0.0
27/08:00am 29.4 32.7 22.6 67 4.6 NE 9 15 5 8 1009.8 1009.6 0.0
27/07:30am 29.4 32.4 22.6 67 4.6 NE 11 17 6 9 1009.2 1009.0 0.0
27/07:00am 29.4 31.7 22.1 65 4.9 NE 13 20 7 11 1008.8 1008.6 0.0
27/06:30am 29.4 31.2 21.9 64 5.1 NE 15 22 8 12 1008.6 1008.4 0.0
27/06:00am 29.3 31.5 23.3 70 4.1 NNE 17 22 9 12 1008.1 1007.9 0.0
27/05:30am 29.2 32.3 22.9 69 4.3 NE 11 17 6 9 1007.9 1007.7 0.0
27/05:00am 29.2 31.5 23.4 71 4.0 NNE 17 22 9 12 1007.6 1007.4 0.0
27/04:30am 29.2 32.0 23.6 72 3.9 N 15 22 8 12 1007.5 1007.3 0.0
27/04:00am 29.1 31.1 24.0 74 3.5 N 20 26 11 14 1007.0 1006.8 0.0
27/03:30am 29.1 32.2 23.5 72 3.9 N 13 17 7 9 1007.2 1007.0 0.0
27/03:00am 29.1 31.4 23.5 72 3.9 N 17 20 9 11 1007.3 1007.1 0.0
27/02:30am 29.3 32.4 23.5 71 4.0 NNE 13 19 7 10 1007.5 1007.3 0.0
27/02:00am 29.4 32.2 23.6 71 4.0 NNE 15 24 8 13 1007.6 1007.4 0.0
27/01:30am 29.4 32.1 22.9 68 4.4 NNE 13 19 7 10 1007.9 1007.7 0.0
27/01:00am 29.5 31.8 22.7 67 4.6 N 15 20 8 11 1008.2 1008.0 0.0
27/12:30am 29.4 32.5 23.6 71 4.0 NNE 13 20 7 11 1008.6 1008.4 0.0
27/12:00am 29.4 32.7 23.8 72 3.9 N 13 17 7 9 1008.8 1008.6 0.0
 
Date/Time
CST
Tmp

°C
App
Tmp
°C
Dew
Point
°C
Rel
Hum
%
Delta-T

°C
Wind Press
QNH
hPa
Press
MSL
hPa
Rain
since
9 am
mm
Dir
 
Spd
km/h
Gust
km/h
Spd
kts
Gust
kts
26/11:30pm 29.4 33.0 23.8 72 3.9 N 11 19 6 10 1008.8 1008.6 0.0
26/11:00pm 29.4 32.3 23.1 69 4.3 N 13 19 7 10 1008.9 1008.7 0.0
26/10:30pm 29.4 33.0 23.8 72 3.9 N 11 17 6 9 1008.6 1008.4 0.0
26/10:00pm 29.2 32.5 23.9 73 3.7 NNW 13 19 7 10 1008.4 1008.2 0.0
26/09:30pm 29.3 32.3 24.0 73 3.7 NNW 15 19 8 10 1008.2 1008.0 0.0
26/09:00pm 29.4 32.3 24.5 75 3.4 NW 17 22 9 12 1008.1 1007.9 0.0
26/08:30pm 29.5 32.9 24.6 75 3.4 NW 15 24 8 13 1007.7 1007.5 0.0
26/08:00pm 29.6 32.0 24.2 73 3.8 NNW 19 26 10 14 1007.1 1006.9 0.0
26/07:30pm 29.7 31.2 24.3 73 3.8 N 24 30 13 16 1006.5 1006.3 0.0
26/07:00pm 29.9 33.1 25.0 75 3.4 N 17 24 9 13 1005.9 1005.7 0.0
26/06:30pm 30.5 32.9 24.2 69 4.4 N 19 22 10 12 1005.7 1005.5 0.0
26/06:00pm 30.6 34.0 23.3 65 5.0 N 11 13 6 7 1005.7 1005.5 0.0
26/05:30pm 31.2 34.9 22.2 58 6.1 NNE 6 9 3 5 1005.6 1005.4 0.0
26/05:00pm 30.8 34.7 21.9 59 6.0 N 4 7 2 4 1005.6 1005.4 0.0
26/04:30pm 31.6 35.3 22.3 57 6.4 N 6 7 3 4 1005.7 1005.5 0.0
26/04:00pm 32.1 35.3 21.3 53 7.3 NE 6 9 3 5 1005.9 1005.7 0.0
26/03:30pm 31.4 35.0 22.4 59 6.2 E 7 11 4 6 1005.7 1005.5 0.0
26/03:00pm 31.1 35.0 23.0 62 5.6 E 7 13 4 7 1006.2 1006.0 0.0
26/02:30pm 31.2 33.4 21.9 57 6.3 ENE 13 20 7 11 1006.5 1006.3 0.0
26/02:00pm 31.8 34.1 24.1 63 5.4 ENE 19 28 10 15 1006.6 1006.4 0.0
26/01:30pm 31.3 35.5 24.7 68 4.6 N 11 15 6 8 1006.8 1006.6 0.0
26/01:00pm 31.1 35.4 23.7 64 5.1 NNE 7 13 4 7 1007.0 1006.8 0.0
26/12:30pm 31.3 35.4 23.9 64 5.2 NE 9 13 5 7 1007.7 1007.5 0.0
26/12:00pm 31.4 35.4 23.8 64 5.3 NE 9 15 5 8 1008.2 1008.0 0.0
26/11:30am 30.9 35.5 24.1 67 4.7 NE 7 13 4 7 1008.6 1008.4 0.0
26/11:00am 30.7 34.9 24.1 68 4.6 ENE 9 15 5 8 1009.0 1008.8 0.0
26/10:30am 30.8 35.2 24.4 68 4.5 E 9 17 5 9 1009.1 1008.9 0.0
26/10:00am 30.8 35.4 24.7 70 4.3 ENE 9 15 5 8 1009.2 1009.0 0.0
26/09:30am 30.0 34.5 24.6 73 3.8 ENE 9 15 5 8 1009.3 1009.1 0.0
26/09:00am 29.0 33.3 24.3 76 3.3 E 9 19 5 10 1009.3 1009.1 1.8
26/08:30am 28.4 32.7 24.2 78 2.9 E 9 15 5 8 1009.1 1008.9 1.8
26/08:00am 28.6 33.5 24.6 79 2.8 E 7 13 4 7 1008.6 1008.4 1.4
26/07:30am 28.0 32.9 24.6 82 2.4 E 7 15 4 8 1008.1 1007.9 1.4
26/07:00am 27.0 31.8 24.1 84 2.0 ESE 6 9 3 5 1007.8 1007.6 1.4
26/06:30am 26.8 31.6 24.1 85 1.9 ESE 6 9 3 5 1007.5 1007.3 1.4
26/06:00am 26.8 32.2 24.5 87 1.6 ESE 4 7 2 4 1007.2 1007.0 1.4
26/05:30am 26.7 31.7 24.5 88 1.5 ESE 6 13 3 7 1006.8 1006.6 1.4
26/05:00am 26.4 31.2 24.2 88 1.5 SE 6 7 3 4 1006.5 1006.3 1.4
26/04:30am 26.2 30.5 23.7 86 1.7 ESE 7 11 4 6 1006.4 1006.2 1.4
26/04:00am 26.0 30.3 23.3 85 1.8 SSE 6 9 3 5 1006.5 1006.3 1.4
26/03:30am 26.3 30.6 23.6 85 1.9 SSE 7 11 4 6 1006.6 1006.4 1.4
26/03:00am 26.4 30.5 23.9 86 1.7 SSE 9 13 5 7 1006.8 1006.6 1.4
26/02:30am 26.3 30.9 24.2 88 1.5 SSE 7 11 4 6 1007.0 1006.8 1.4
26/02:00am 26.3 31.2 24.3 89 1.4 SE 6 7 3 4 1007.0 1006.8 1.4
26/01:30am 26.4 31.2 24.4 89 1.4 SSE 7 11 4 6 1007.0 1006.8 1.4
26/01:00am 26.5 31.5 24.5 89 1.4 S 6 9 3 5 1007.4 1007.2 1.4
26/12:30am 26.7 32.0 24.9 90 1.3 S 6 9 3 5 1007.8 1007.6 1.4
26/12:00am 26.7 32.3 24.9 90 1.3 SSW 4 7 2 4 1008.2 1008.0 1.4
 
Date/Time
CST
Tmp

°C
App
Tmp
°C
Dew
Point
°C
Rel
Hum
%
Delta-T

°C
Wind Press
QNH
hPa
Press
MSL
hPa
Rain
since
9 am
mm
Dir
 
Spd
km/h
Gust
km/h
Spd
kts
Gust
kts
25/11:30pm 27.0 32.2 24.8 88 1.5 SSE 6 9 3 5 1008.4 1008.2 1.4
25/11:00pm 27.2 32.2 24.8 87 1.7 S 7 9 4 5 1008.5 1008.3 1.4
25/10:30pm 29.3 35.4 25.1 78 3.0 NNW 2 7 1 4 1008.2 1008.0 1.4
25/10:00pm 29.2 33.9 25.0 78 2.9 NNW 9 13 5 7 1008.0 1007.8 1.4
25/09:30pm 29.3 33.9 24.8 77 3.2 NNW 9 13 5 7 1007.6 1007.4 1.4
25/09:00pm 28.6 34.4 25.2 82 2.4 N 4 7 2 4 1007.7 1007.5 1.4
25/08:30pm 29.0 34.1 25.0 79 2.8 NNW 7 11 4 6 1007.8 1007.6 1.4
25/08:00pm 28.8 33.7 25.2 81 2.5 N 9 13 5 7 1007.5 1007.3 1.4
25/07:30pm 28.8 33.8 25.4 82 2.4 N 9 13 5 7 1006.8 1006.6 1.4
25/07:00pm 27.7 34.1 25.5 88 1.5 E 2 4 1 2 1006.8 1006.6 1.4
25/06:30pm 28.0 33.0 24.8 83 2.2 NNE 7 13 4 7 1006.2 1006.0 1.4
25/06:00pm 30.1 34.3 23.5 67 4.6 ESE 7 17 4 9 1006.4 1006.2 0.0
25/05:30pm 31.2 34.7 22.8 61 5.8 SSW 9 17 5 9 1006.5 1006.3 0.0
25/05:00pm 31.0 34.6 23.1 63 5.4 WSW 9 17 5 9 1006.3 1006.1 0.0

Latest Capital City Observations: Canberra | Sydney | Melbourne | Brisbane | Adelaide | Perth | Hobart | Darwin

Other Formats:

Comma delimited format used in spreadsheet applications
http://www.bom.gov.au/fwo/IDD60901/IDD60901.99510.axf

JavaScript Object Notation format (JSON) in row-major order
http://www.bom.gov.au/fwo/IDD60901/IDD60901.99510.json